createdAt,value
2018-10-04T00:00:32.078Z,19.00
2018-10-04T00:01:36.161Z,18.50
2018-10-04T00:02:38.966Z,16.25
2018-10-04T00:03:41.669Z,16.00
2018-10-04T00:04:44.590Z,16.00
2018-10-04T00:05:49.054Z,16.50
2018-10-04T00:06:52.600Z,19.75
2018-10-04T00:07:55.901Z,16.00
2018-10-04T00:09:00.617Z,19.75
2018-10-04T00:10:04.815Z,16.50
2018-10-04T00:11:08.588Z,16.00
2018-10-04T00:12:11.724Z,19.50
2018-10-04T00:13:17.768Z,17.00
2018-10-04T00:14:22.706Z,17.75
2018-10-04T00:15:25.773Z,16.50
2018-10-04T00:16:29.957Z,17.50
2018-10-04T00:17:33.185Z,15.00
2018-10-04T00:18:37.266Z,16.00
2018-10-04T00:19:40.434Z,20.75
2018-10-04T00:20:46.777Z,17.00
2018-10-04T00:21:50.823Z,17.00
2018-10-04T00:22:53.635Z,15.00
2018-10-04T00:23:56.357Z,19.00
2018-10-04T00:24:59.077Z,15.50
2018-10-04T00:26:03.148Z,16.00
2018-10-04T00:27:09.431Z,19.50
2018-10-04T00:28:12.186Z,17.00
2018-10-04T00:29:15.626Z,17.00
2018-10-04T00:30:18.563Z,18.00
2018-10-04T00:31:21.354Z,17.75
2018-10-04T00:32:24.575Z,18.00
2018-10-04T00:33:28.452Z,17.00
2018-10-04T00:34:31.197Z,21.00
2018-10-04T00:35:34.485Z,17.50
2018-10-04T00:36:37.961Z,18.00
2018-10-04T00:37:40.702Z,16.00
2018-10-04T00:38:44.259Z,21.25
2018-10-04T00:39:47.810Z,15.50
2018-10-04T00:40:50.824Z,19.25
2018-10-04T00:41:53.554Z,20.75
2018-10-04T00:42:56.287Z,17.50
2018-10-04T00:43:59.026Z,16.50
2018-10-04T00:45:03.132Z,17.75
2018-10-04T00:46:06.653Z,15.00
2018-10-04T00:47:14.272Z,19.50
2018-10-04T00:48:19.388Z,13.50
2018-10-04T00:49:22.782Z,14.00
2018-10-04T00:50:25.514Z,13.50
2018-10-04T00:51:28.571Z,18.75
2018-10-04T00:52:31.311Z,15.00
2018-10-04T00:53:34.918Z,12.50
2018-10-04T00:54:37.691Z,15.50
2018-10-04T00:55:40.648Z,14.00
2018-10-04T00:56:43.413Z,14.50
2018-10-04T00:57:46.451Z,16.00
2018-10-04T00:58:49.166Z,16.50
2018-10-04T00:59:51.898Z,17.50
2018-10-04T01:00:54.678Z,15.50
2018-10-04T01:01:57.408Z,17.75
2018-10-04T01:03:00.171Z,16.50
2018-10-04T01:04:03.214Z,17.00
2018-10-04T01:05:05.963Z,17.50
2018-10-04T01:06:08.745Z,13.25
2018-10-04T01:07:11.497Z,15.50
2018-10-04T01:08:14.241Z,15.00
2018-10-04T01:09:16.966Z,15.50
2018-10-04T01:10:20.114Z,14.00
2018-10-04T01:11:23.480Z,16.00
2018-10-04T01:12:26.269Z,17.00
2018-10-04T01:13:28.966Z,16.00
2018-10-04T01:14:31.694Z,16.50
2018-10-04T01:15:34.440Z,17.00
2018-10-04T01:16:38.519Z,15.00
2018-10-04T01:17:42.855Z,16.00
2018-10-04T01:18:46.239Z,18.00
2018-10-04T01:19:48.973Z,17.00
2018-10-04T01:20:51.720Z,17.00
2018-10-04T01:21:54.460Z,16.00
2018-10-04T01:22:58.420Z,16.50
2018-10-04T01:24:01.196Z,17.50
2018-10-04T01:25:04.019Z,18.00
2018-10-04T01:26:06.754Z,16.00
2018-10-04T01:27:09.625Z,16.00
2018-10-04T01:28:13.352Z,13.50
2018-10-04T01:29:17.127Z,16.00
2018-10-04T01:30:20.897Z,16.00
2018-10-04T01:31:23.982Z,15.50
2018-10-04T01:32:26.860Z,14.25
2018-10-04T01:33:29.589Z,13.25
2018-10-04T01:40:05.711Z,16.50
2018-10-04T01:41:08.454Z,14.50
2018-10-04T01:42:12.036Z,16.00
2018-10-04T01:43:14.785Z,14.00
2018-10-04T01:44:19.871Z,17.50
2018-10-04T01:45:22.607Z,16.75
2018-10-04T01:46:25.326Z,15.50
2018-10-04T01:47:29.697Z,14.00
2018-10-04T01:48:34.240Z,14.75
2018-10-04T01:49:36.950Z,15.00
2018-10-04T01:50:39.974Z,17.75
2018-10-04T01:51:42.691Z,15.25
2018-10-04T01:52:45.463Z,14.00
2018-10-04T01:53:48.285Z,16.25
2018-10-04T01:54:51.621Z,15.25
2018-10-04T01:55:54.497Z,15.50
2018-10-04T01:56:59.579Z,16.00
2018-10-04T01:58:02.303Z,19.50
2018-10-04T01:59:05.197Z,16.75
2018-10-04T02:00:07.943Z,14.50
2018-10-04T02:01:10.748Z,14.75
2018-10-04T02:02:14.183Z,12.75
2018-10-04T02:03:17.333Z,15.75
2018-10-04T02:04:20.043Z,14.00
2018-10-04T02:05:24.197Z,13.00
2018-10-04T02:06:26.889Z,16.00
2018-10-04T02:07:29.589Z,13.50
2018-10-04T02:08:32.289Z,11.25
2018-10-04T02:09:35.410Z,16.75
2018-10-04T02:10:38.115Z,14.00
2018-10-04T02:11:41.487Z,14.25
2018-10-04T02:12:44.162Z,16.25
2018-10-04T02:13:47.526Z,13.75
2018-10-04T02:14:50.237Z,12.75
2018-10-04T02:15:53.666Z,11.00
2018-10-04T02:16:56.397Z,14.00
2018-10-04T02:17:59.108Z,14.00
2018-10-04T02:19:01.810Z,11.50
2018-10-04T02:20:04.632Z,14.00
2018-10-04T02:21:07.358Z,16.00
2018-10-04T02:22:10.539Z,18.75
2018-10-04T02:23:13.259Z,16.25
2018-10-04T02:24:15.968Z,15.25
2018-10-04T02:25:18.704Z,15.50
2018-10-04T02:26:21.433Z,13.25
2018-10-04T02:27:24.136Z,17.00
2018-10-04T02:28:27.309Z,16.00
2018-10-04T02:29:30.025Z,13.75
2018-10-04T02:30:32.729Z,14.75
2018-10-04T02:31:35.682Z,15.00
2018-10-04T02:32:38.495Z,16.25
2018-10-04T02:33:41.207Z,16.25
2018-10-04T02:34:44.347Z,13.75
2018-10-04T02:35:47.057Z,12.25
2018-10-04T02:36:49.797Z,18.25
2018-10-04T02:37:52.750Z,18.50
2018-10-04T02:38:55.476Z,12.25
2018-10-04T02:39:58.180Z,14.75
2018-10-04T02:41:01.397Z,12.75
2018-10-04T02:42:04.140Z,13.00
2018-10-04T02:43:06.824Z,13.75
2018-10-04T02:44:09.613Z,12.50
2018-10-04T02:45:12.320Z,13.25
2018-10-04T02:46:15.061Z,15.00
2018-10-04T02:47:18.082Z,13.25
2018-10-04T02:48:20.792Z,14.25
2018-10-04T02:49:23.509Z,16.50
2018-10-04T02:50:26.213Z,14.75
2018-10-04T02:51:28.914Z,13.25
2018-10-04T02:52:31.639Z,12.75
2018-10-04T02:53:34.829Z,14.00
2018-10-04T02:54:37.619Z,15.75
2018-10-04T02:55:45.397Z,12.75
2018-10-04T02:56:56.732Z,13.00
2018-10-04T02:57:59.483Z,13.00
2018-10-04T02:59:02.185Z,14.75
2018-10-04T03:00:05.413Z,17.25
2018-10-04T03:01:08.135Z,16.00
2018-10-04T03:02:10.830Z,14.50
2018-10-04T03:03:13.539Z,14.75
2018-10-04T03:04:16.223Z,14.75
2018-10-04T03:05:19.739Z,13.75
2018-10-04T03:06:23.461Z,15.00
2018-10-04T03:07:26.326Z,14.50
2018-10-04T03:08:29.142Z,17.00
2018-10-04T03:09:32.357Z,14.25
2018-10-04T03:10:35.067Z,15.75
2018-10-04T03:11:37.771Z,13.75
2018-10-04T03:12:40.985Z,15.00
2018-10-04T03:13:43.680Z,18.00
2018-10-04T03:14:46.414Z,15.25
2018-10-04T03:15:49.449Z,17.00
2018-10-04T03:16:52.583Z,15.75
2018-10-04T03:17:55.315Z,13.25
2018-10-04T03:18:58.355Z,16.75
2018-10-04T03:20:01.160Z,18.00
2018-10-04T03:21:03.922Z,14.50
2018-10-04T03:22:07.501Z,16.00
2018-10-04T03:23:10.242Z,16.25
2018-10-04T03:24:12.924Z,16.00
2018-10-04T03:25:15.988Z,16.25
2018-10-04T03:26:18.722Z,16.25
2018-10-04T03:27:21.425Z,11.75
2018-10-04T03:28:24.153Z,14.50
2018-10-04T03:29:26.873Z,18.00
2018-10-04T03:30:29.606Z,16.75
2018-10-04T03:31:32.815Z,16.00
2018-10-04T03:32:35.555Z,18.00
2018-10-04T03:33:38.332Z,16.00
2018-10-04T03:34:41.037Z,14.25
2018-10-04T03:35:43.757Z,11.75
2018-10-04T03:36:46.916Z,16.00
2018-10-04T03:37:50.024Z,19.75
2018-10-04T03:38:52.756Z,18.50
2018-10-04T03:39:55.479Z,21.50
2018-10-04T03:40:58.180Z,17.50
2018-10-04T03:42:00.886Z,18.00
2018-10-04T03:43:03.616Z,23.75
2018-10-04T03:44:06.624Z,21.50
2018-10-04T03:45:09.513Z,14.50
2018-10-04T03:46:12.283Z,19.25
2018-10-04T03:47:15.008Z,21.25
2018-10-04T03:48:17.712Z,23.50
2018-10-04T03:49:20.424Z,25.00
2018-10-04T03:50:23.517Z,21.50
2018-10-04T03:51:26.360Z,20.25
2018-10-04T03:52:29.090Z,16.00
2018-10-04T03:53:33.012Z,20.00
2018-10-04T03:54:36.412Z,18.00
2018-10-04T03:55:40.637Z,20.25
2018-10-04T03:56:44.462Z,23.75
2018-10-04T03:57:47.205Z,18.50
2018-10-04T03:58:49.947Z,15.50
2018-10-04T03:59:52.675Z,16.00
2018-10-04T04:00:55.376Z,15.75
2018-10-04T04:01:58.055Z,12.00
2018-10-04T04:03:01.355Z,16.50
2018-10-04T04:04:04.899Z,14.00
2018-10-04T04:05:07.703Z,16.00
2018-10-04T04:06:11.053Z,14.00
2018-10-04T04:07:14.279Z,15.25
2018-10-04T04:08:17.556Z,17.50
2018-10-04T04:09:21.393Z,16.00
2018-10-04T04:10:24.367Z,19.50
2018-10-04T04:11:29.409Z,18.00
2018-10-04T04:12:32.599Z,16.75
2018-10-04T04:13:37.079Z,18.00
2018-10-04T04:14:40.496Z,27.00
2018-10-04T04:15:44.126Z,20.00
2018-10-04T04:16:47.442Z,21.75
2018-10-04T04:17:50.612Z,19.75
2018-10-04T04:18:53.841Z,20.00
2018-10-04T04:19:57.175Z,23.50
2018-10-04T04:21:00.216Z,27.00
2018-10-04T04:22:04.143Z,29.25
2018-10-04T04:23:07.297Z,21.75
2018-10-04T04:24:10.730Z,26.75
2018-10-04T04:25:17.001Z,22.25
2018-10-04T04:26:20.071Z,29.25
2018-10-04T04:27:22.928Z,20.00
2018-10-04T04:28:26.280Z,20.50
2018-10-04T04:29:32.676Z,14.00
2018-10-04T04:30:40.139Z,18.00
2018-10-04T04:31:43.634Z,17.25
2018-10-04T04:32:46.559Z,21.25
2018-10-04T04:33:50.282Z,21.75
2018-10-04T04:34:54.422Z,28.00
2018-10-04T04:35:57.243Z,20.00
2018-10-04T04:36:59.965Z,22.25
2018-10-04T04:38:02.731Z,22.25
2018-10-04T04:39:05.808Z,25.00
2018-10-04T04:40:09.111Z,20.50
2018-10-04T04:41:12.128Z,18.00
2018-10-04T04:42:14.904Z,16.00
2018-10-04T04:43:18.565Z,20.00
2018-10-04T04:44:21.330Z,16.00
2018-10-04T04:45:24.198Z,19.50
2018-10-04T04:46:26.984Z,18.50
2018-10-04T04:47:30.183Z,21.50
2018-10-04T04:48:33.701Z,17.50
2018-10-04T04:49:36.590Z,20.00
2018-10-04T04:50:40.091Z,17.50
2018-10-04T04:51:44.007Z,18.00
2018-10-04T04:52:46.758Z,18.00
2018-10-04T04:53:52.771Z,16.50
2018-10-04T04:54:56.429Z,14.00
2018-10-04T04:55:59.205Z,16.00
2018-10-04T04:57:03.476Z,15.00
2018-10-04T04:58:07.483Z,16.50
2018-10-04T04:59:11.361Z,24.00
2018-10-04T05:00:14.761Z,24.75
2018-10-04T05:01:17.547Z,31.00
2018-10-04T05:02:20.371Z,27.25
2018-10-04T05:03:23.191Z,26.75
2018-10-04T05:04:25.932Z,26.25
2018-10-04T05:05:29.169Z,28.25
2018-10-04T05:06:32.349Z,30.50
2018-10-04T05:07:35.403Z,29.50
2018-10-04T05:08:38.471Z,35.00
2018-10-04T05:09:41.318Z,32.25
2018-10-04T05:10:44.113Z,32.50
2018-10-04T05:11:47.556Z,31.00
2018-10-04T05:12:51.012Z,30.50
2018-10-04T05:13:53.798Z,32.75
2018-10-04T05:14:56.730Z,29.25
2018-10-04T05:15:59.684Z,32.00
2018-10-04T05:17:02.440Z,35.50
2018-10-04T05:18:06.571Z,41.50
2018-10-04T05:19:10.773Z,35.50
2018-10-04T05:20:13.841Z,35.25
2018-10-04T05:21:17.533Z,33.75
2018-10-04T05:22:20.289Z,31.25
2018-10-04T05:23:23.492Z,30.75
2018-10-04T05:24:26.295Z,32.75
2018-10-04T05:25:30.323Z,29.00
2018-10-04T05:26:35.364Z,32.25
2018-10-04T05:27:39.441Z,31.25
2018-10-04T05:28:42.440Z,29.00
2018-10-04T05:29:49.553Z,34.75
2018-10-04T05:43:59.354Z,26.25
2018-10-04T05:45:02.228Z,29.25
2018-10-04T05:46:06.099Z,31.75
2018-10-04T05:47:11.182Z,26.00
2018-10-04T05:48:13.915Z,30.00
2018-10-04T05:49:18.410Z,28.25
2018-10-04T05:50:23.762Z,30.25
2018-10-04T05:51:28.431Z,32.75
2018-10-04T05:52:33.465Z,31.25
2018-10-04T05:53:36.979Z,34.00
2018-10-04T05:54:40.794Z,34.25
2018-10-04T05:55:45.847Z,29.50
2018-10-04T05:56:49.861Z,32.75
2018-10-04T05:57:54.411Z,28.00
2018-10-04T05:58:58.518Z,27.75
2018-10-04T06:00:02.290Z,30.00
2018-10-04T06:01:05.242Z,26.50
2018-10-04T06:02:10.421Z,34.25
2018-10-04T06:03:13.661Z,28.75
2018-10-04T06:04:18.195Z,33.75
2018-10-04T06:05:25.223Z,40.00
2018-10-04T06:06:29.189Z,42.25
2018-10-04T06:07:33.024Z,39.00
2018-10-04T06:08:39.160Z,35.25
2018-10-04T06:09:43.459Z,38.25
2018-10-04T06:10:49.865Z,37.00
2018-10-04T06:11:52.848Z,37.75
2018-10-04T06:12:56.283Z,32.25
2018-10-04T06:14:01.480Z,39.50
2018-10-04T06:15:05.398Z,34.25
2018-10-04T06:16:08.389Z,36.25
2018-10-04T06:17:11.517Z,34.00
2018-10-04T06:18:14.478Z,38.75
2018-10-04T06:19:17.524Z,35.75
2018-10-04T06:20:21.785Z,42.75
2018-10-04T06:22:33.130Z,36.50
2018-10-04T06:23:36.974Z,42.25
2018-10-04T06:24:40.600Z,41.50
2018-10-04T06:25:43.309Z,43.50
2018-10-04T06:26:46.698Z,43.75
2018-10-04T06:27:50.103Z,49.00
2018-10-04T06:28:53.776Z,46.75
2018-10-04T06:29:56.499Z,42.75
2018-10-04T06:31:00.232Z,41.00
2018-10-04T06:32:04.031Z,44.25
2018-10-04T06:33:06.906Z,42.00
2018-10-04T06:34:10.980Z,36.25
2018-10-04T06:35:13.716Z,35.50
2018-10-04T06:36:17.009Z,34.25
2018-10-04T06:37:19.870Z,30.75
2018-10-04T06:38:22.813Z,34.25
2018-10-04T06:39:25.561Z,35.75
2018-10-04T06:40:28.777Z,37.50
2018-10-04T06:41:31.561Z,48.50
2018-10-04T06:42:34.317Z,55.00
2018-10-04T06:43:38.787Z,57.75
2018-10-04T06:44:41.613Z,59.50
2018-10-04T06:45:45.929Z,53.75
2018-10-04T06:46:49.612Z,43.00
2018-10-04T06:47:54.094Z,48.25
2018-10-04T06:48:57.004Z,45.50
2018-10-04T06:50:01.414Z,45.75
2018-10-04T06:51:04.279Z,50.25
2018-10-04T06:52:07.466Z,46.00
2018-10-04T06:53:10.240Z,46.25
2018-10-04T06:54:14.579Z,51.00
2018-10-04T06:55:19.988Z,49.00
2018-10-04T06:56:23.523Z,49.25
2018-10-04T06:57:27.587Z,49.25
2018-10-04T06:58:32.136Z,56.75
2018-10-04T06:59:35.646Z,55.50
2018-10-04T07:00:38.551Z,52.75
2018-10-04T07:01:41.277Z,51.00
2018-10-04T07:02:44.920Z,55.50
2018-10-04T07:03:48.337Z,52.75
2018-10-04T07:04:51.804Z,59.75
2018-10-04T07:05:56.240Z,62.00
2018-10-04T07:07:01.268Z,64.50
2018-10-04T07:08:04.386Z,65.75
2018-10-04T07:09:07.291Z,63.00
2018-10-04T07:10:10.745Z,49.75
2018-10-04T07:11:16.467Z,39.00
2018-10-04T07:12:21.367Z,36.00
2018-10-04T07:13:24.239Z,30.25
2018-10-04T07:14:28.624Z,29.50
2018-10-04T07:15:33.360Z,31.00
2018-10-04T07:16:37.720Z,33.00
2018-10-04T07:17:42.371Z,31.25
2018-10-04T07:18:45.238Z,35.75
2018-10-04T07:19:51.279Z,32.00
2018-10-04T07:20:54.875Z,26.75
2018-10-04T07:21:59.685Z,29.50
2018-10-04T07:23:02.491Z,34.00
2018-10-04T07:24:06.407Z,29.50
2018-10-04T07:25:10.844Z,31.75
2018-10-04T07:26:14.234Z,38.00
2018-10-04T07:27:18.168Z,35.00
2018-10-04T07:28:21.294Z,41.25
2018-10-04T07:29:25.339Z,39.25
2018-10-04T07:30:29.430Z,37.00
2018-10-04T07:31:34.589Z,39.50
2018-10-04T07:32:39.703Z,38.25
2018-10-04T07:33:42.724Z,35.50
2018-10-04T07:34:46.139Z,31.25
2018-10-04T07:35:49.789Z,27.00
2018-10-04T07:36:53.361Z,31.00
2018-10-04T07:37:58.105Z,30.25
2018-10-04T07:39:02.508Z,30.25
2018-10-04T07:40:06.423Z,30.00
2018-10-04T07:41:09.241Z,31.00
2018-10-04T07:42:14.560Z,26.00
2018-10-04T07:43:17.319Z,34.25
2018-10-04T07:44:20.427Z,32.00
2018-10-04T07:45:24.172Z,30.00
2018-10-04T07:46:32.779Z,27.75
2018-10-04T07:47:36.875Z,28.50
2018-10-04T07:48:42.100Z,33.75
2018-10-04T07:49:47.095Z,28.50
2018-10-04T07:50:50.705Z,36.00
2018-10-04T07:51:57.531Z,33.00
2018-10-04T07:53:01.486Z,32.00
2018-10-04T07:54:04.240Z,39.75
2018-10-04T07:55:13.534Z,30.50
2018-10-04T07:56:20.429Z,35.75
2018-10-04T07:57:24.400Z,33.75
2018-10-04T07:58:28.526Z,36.00
2018-10-04T07:59:33.896Z,36.75
2018-10-04T08:00:38.238Z,36.75
2018-10-04T08:01:43.021Z,34.25
2018-10-04T08:02:45.830Z,33.50
2018-10-04T08:03:49.166Z,36.00
2018-10-04T08:04:53.489Z,39.50
2018-10-04T08:05:56.828Z,40.50
2018-10-04T08:07:00.282Z,38.00
2018-10-04T08:08:05.060Z,34.75
2018-10-04T08:09:08.457Z,35.75
2018-10-04T08:10:12.499Z,28.75
2018-10-04T08:11:16.156Z,34.25
2018-10-04T08:12:20.147Z,38.25
2018-10-04T08:13:23.651Z,30.00
2018-10-04T08:14:27.535Z,29.50
2018-10-04T08:15:31.413Z,28.75
2018-10-04T08:16:35.632Z,28.00
2018-10-04T08:17:39.229Z,27.00
2018-10-04T08:18:42.773Z,34.25
2018-10-04T08:19:46.519Z,31.00
2018-10-04T08:20:50.733Z,31.50
2018-10-04T08:21:54.143Z,26.75
2018-10-04T08:22:58.064Z,27.50
2018-10-04T08:24:02.860Z,27.25
2018-10-04T08:25:07.446Z,26.75
2018-10-04T08:26:11.865Z,34.50
2018-10-04T08:27:14.703Z,27.50
2018-10-04T08:28:19.711Z,29.50
2018-10-04T08:29:24.408Z,28.75
2018-10-04T08:30:28.642Z,27.75
2018-10-04T08:31:31.743Z,27.50
2018-10-04T08:32:37.450Z,29.50
2018-10-04T08:33:42.009Z,32.25
2018-10-04T08:34:46.406Z,34.75
2018-10-04T08:35:51.394Z,39.50
2018-10-04T08:36:56.846Z,42.00
2018-10-04T08:38:00.340Z,40.00
2018-10-04T08:39:06.497Z,34.75
2018-10-04T08:40:15.891Z,38.50
2018-10-04T08:41:20.501Z,34.75
2018-10-04T08:42:23.541Z,33.25
2018-10-04T08:43:27.555Z,32.75
2018-10-04T08:44:30.379Z,28.50
2018-10-04T08:45:35.032Z,38.25
2018-10-04T08:46:38.800Z,35.50
2018-10-04T08:47:41.885Z,36.00
2018-10-04T08:48:44.678Z,32.25
2018-10-04T08:49:50.663Z,36.00
2018-10-04T08:50:55.270Z,33.50
2018-10-04T08:51:59.540Z,34.75
2018-10-04T08:53:03.324Z,37.75
2018-10-04T08:54:06.961Z,36.25
2018-10-04T08:55:14.650Z,39.25
2018-10-04T08:56:18.687Z,36.00
2018-10-04T08:57:23.269Z,34.75
2018-10-04T08:58:26.381Z,38.00
2018-10-04T08:59:29.584Z,38.00
2018-10-04T09:00:35.489Z,33.25
2018-10-04T09:01:38.548Z,37.00
2018-10-04T09:02:42.541Z,34.75
2018-10-04T09:03:49.326Z,31.00
2018-10-04T09:04:53.481Z,32.50
2018-10-04T09:05:57.313Z,35.50
2018-10-04T09:08:10.465Z,39.25
2018-10-04T09:09:13.412Z,37.50
2018-10-04T09:10:17.202Z,30.00
2018-10-04T09:11:25.289Z,37.00
2018-10-04T09:12:29.091Z,33.25
2018-10-04T09:13:35.132Z,36.50
2018-10-04T09:14:39.804Z,36.25
2018-10-04T09:15:44.515Z,34.50
2018-10-04T09:16:50.036Z,32.50
2018-10-04T09:17:55.410Z,34.75
2018-10-04T09:19:00.845Z,30.50
2018-10-04T09:20:07.282Z,33.75
2018-10-04T09:21:11.572Z,30.75
2018-10-04T09:22:15.306Z,33.25
2018-10-04T09:23:19.286Z,33.75
2018-10-04T09:24:22.362Z,35.50
2018-10-04T09:25:26.539Z,33.50
2018-10-04T09:27:44.084Z,29.50
2018-10-04T09:29:20.006Z,29.75
2018-10-04T09:30:29.076Z,30.50
2018-10-04T09:31:39.556Z,28.25
2018-10-04T09:32:45.755Z,29.00
2018-10-04T09:33:49.442Z,30.25
2018-10-04T09:34:52.327Z,31.25
2018-10-04T09:35:56.119Z,30.00
2018-10-04T09:36:59.806Z,28.00
2018-10-04T09:38:02.578Z,23.50
2018-10-04T09:39:07.669Z,24.50
2018-10-04T09:40:11.425Z,40.00
2018-10-04T09:41:14.386Z,41.00
2018-10-04T09:42:19.183Z,41.50
2018-10-04T09:43:22.290Z,41.00
2018-10-04T09:44:25.486Z,37.50
2018-10-04T09:45:28.830Z,34.25
2018-10-04T09:47:45.501Z,26.50
2018-10-04T09:48:49.276Z,33.75
2018-10-04T09:50:07.975Z,30.00
2018-10-04T09:51:15.793Z,35.00
2018-10-04T09:52:18.597Z,29.00
2018-10-04T09:53:22.250Z,26.25
2018-10-04T09:55:56.511Z,23.50
2018-10-04T09:57:00.252Z,25.50
2018-10-04T09:58:03.834Z,26.75
2018-10-04T09:59:07.734Z,26.50
2018-10-04T10:00:15.970Z,26.00
2018-10-04T10:01:23.965Z,26.25
2018-10-04T10:02:31.729Z,26.50
2018-10-04T10:03:34.653Z,27.00
2018-10-04T10:04:37.948Z,26.00
2018-10-04T10:05:40.976Z,26.50
2018-10-04T10:06:43.958Z,26.00
2018-10-04T10:07:48.069Z,27.00
2018-10-04T10:08:51.923Z,29.00
2018-10-04T10:09:54.959Z,29.00
2018-10-04T10:10:57.965Z,30.00
2018-10-04T10:12:01.487Z,24.25
2018-10-04T10:13:05.062Z,32.25
2018-10-04T10:14:09.167Z,24.75
2018-10-04T10:15:12.230Z,28.75
2018-10-04T10:16:15.875Z,24.75
2018-10-04T10:17:18.879Z,27.25
2018-10-04T10:18:22.118Z,25.00
2018-10-04T10:19:26.019Z,24.75
2018-10-04T10:20:31.268Z,22.25
2018-10-04T10:21:34.097Z,23.75
2018-10-04T10:22:37.332Z,27.25
2018-10-04T10:23:40.451Z,21.50
2018-10-04T10:24:43.503Z,24.00
2018-10-04T10:25:46.399Z,24.75
2018-10-04T10:26:49.472Z,26.25
2018-10-04T10:27:52.767Z,24.00
2018-10-04T10:29:01.910Z,27.50
2018-10-04T10:30:05.053Z,27.75
2018-10-04T10:43:31.947Z,26.25
2018-10-04T10:44:35.002Z,24.50
2018-10-04T10:45:37.837Z,24.00
2018-10-04T10:46:41.678Z,20.50
2018-10-04T10:47:44.762Z,22.25
2018-10-04T10:48:47.934Z,24.50
2018-10-04T10:49:52.405Z,24.00
2018-10-04T10:50:55.480Z,23.00
2018-10-04T10:51:58.302Z,23.50
2018-10-04T10:53:01.114Z,21.50
2018-10-04T10:54:05.239Z,26.50
2018-10-04T10:55:08.619Z,28.75
2018-10-04T10:56:12.234Z,34.00
2018-10-04T10:57:15.983Z,29.75
2018-10-04T10:58:18.782Z,26.00
2018-10-04T10:59:21.801Z,26.25
2018-10-04T11:00:24.717Z,25.50
2018-10-04T11:01:28.001Z,26.25
2018-10-04T11:02:31.158Z,23.25
2018-10-04T11:03:33.951Z,25.50
2018-10-04T11:04:37.412Z,23.00
2018-10-04T11:05:41.956Z,25.00
2018-10-04T11:06:45.813Z,29.00
2018-10-04T11:07:49.200Z,24.75
2018-10-04T11:08:51.948Z,29.00
2018-10-04T11:09:54.727Z,29.00
2018-10-04T11:10:57.520Z,24.75
2018-10-04T11:12:00.368Z,23.75
2018-10-04T11:13:03.403Z,25.50
2018-10-04T11:14:06.464Z,28.00
2018-10-04T11:15:09.259Z,29.25
2018-10-04T11:16:12.045Z,27.75
2018-10-04T11:17:14.797Z,27.75
2018-10-04T11:18:18.143Z,27.00
2018-10-04T11:19:21.719Z,24.75
2018-10-04T11:20:25.225Z,25.75
2018-10-04T11:21:28.082Z,27.00
2018-10-04T11:22:31.516Z,24.25
2018-10-04T11:23:34.992Z,28.75
2018-10-04T11:24:38.276Z,22.50
2018-10-04T11:25:41.911Z,21.25
2018-10-04T11:26:45.591Z,21.75
2018-10-04T11:27:48.341Z,23.00
2018-10-04T11:28:52.031Z,20.75
2018-10-04T11:29:55.566Z,24.50
2018-10-04T11:31:00.649Z,24.75
2018-10-04T11:32:03.572Z,18.25
2018-10-04T11:33:06.832Z,24.75
2018-10-04T11:34:09.585Z,19.00
2018-10-04T11:35:14.607Z,20.25
2018-10-04T11:36:19.035Z,17.00
2018-10-04T11:37:22.714Z,18.25
2018-10-04T11:38:26.010Z,18.75
2018-10-04T11:39:30.609Z,20.00
2018-10-04T11:40:33.400Z,14.25
2018-10-04T11:41:36.435Z,15.00
2018-10-04T11:42:40.492Z,18.50
2018-10-04T11:43:46.758Z,18.75
2018-10-04T11:44:58.017Z,17.75
2018-10-04T11:46:02.387Z,24.00
2018-10-04T11:47:09.939Z,20.00
2018-10-04T11:48:15.534Z,20.50
2018-10-04T11:49:19.315Z,15.00
2018-10-04T11:50:27.412Z,17.00
2018-10-04T11:51:32.732Z,17.00
2018-10-04T11:52:37.340Z,16.50
2018-10-04T11:53:42.785Z,16.50
2018-10-04T11:54:45.700Z,20.25
2018-10-04T11:55:48.652Z,20.25
2018-10-04T11:56:53.503Z,20.00
2018-10-04T11:57:57.834Z,22.00
2018-10-04T11:59:00.663Z,21.50
2018-10-04T12:00:03.425Z,20.75
2018-10-04T12:01:06.367Z,19.50
2018-10-04T12:02:09.829Z,18.50
2018-10-04T12:03:12.622Z,18.75
2018-10-04T12:04:15.718Z,19.75
2018-10-04T12:05:19.436Z,19.75
2018-10-04T12:06:22.668Z,21.00
2018-10-04T12:07:25.442Z,17.75
2018-10-04T12:08:29.275Z,15.75
2018-10-04T12:09:32.102Z,15.50
2018-10-04T12:10:35.208Z,17.00
2018-10-04T12:11:39.828Z,18.00
2018-10-04T12:12:43.432Z,19.50
2018-10-04T12:13:46.679Z,15.00
2018-10-04T12:14:49.761Z,17.00
2018-10-04T12:15:52.837Z,19.00
2018-10-04T12:16:55.550Z,13.00
2018-10-04T12:17:58.296Z,13.00
2018-10-04T12:19:01.055Z,17.00
2018-10-04T12:20:04.488Z,18.25
2018-10-04T12:21:08.208Z,15.75
2018-10-04T12:22:10.940Z,15.25
2018-10-04T12:23:14.132Z,17.25
2018-10-04T12:24:17.091Z,17.00
2018-10-04T12:25:19.995Z,16.50
2018-10-04T12:26:22.842Z,15.25
2018-10-04T12:27:26.473Z,15.75
2018-10-04T12:28:29.246Z,15.75
2018-10-04T12:29:33.412Z,18.50
2018-10-04T12:30:36.430Z,15.50
2018-10-04T12:31:46.480Z,19.25
2018-10-04T12:32:49.228Z,16.75
2018-10-04T12:33:52.028Z,18.75
2018-10-04T12:34:55.005Z,15.50
2018-10-04T12:35:58.204Z,15.25
2018-10-04T12:37:01.002Z,17.50
2018-10-04T12:38:03.798Z,14.75
2018-10-04T12:39:06.530Z,19.25
2018-10-04T12:40:09.321Z,18.50
2018-10-04T12:41:12.727Z,14.25
2018-10-04T12:42:15.794Z,15.00
2018-10-04T12:43:18.724Z,13.50
2018-10-04T12:44:21.514Z,16.75
2018-10-04T12:45:24.285Z,18.25
2018-10-04T12:46:28.630Z,16.75
2018-10-04T12:47:32.237Z,15.25
2018-10-04T12:48:35.407Z,13.25
2018-10-04T12:49:39.488Z,18.75
2018-10-04T12:50:44.060Z,18.75
2018-10-04T12:51:49.090Z,14.75
2018-10-04T12:52:51.840Z,15.75
2018-10-04T12:53:55.544Z,15.50
2018-10-04T12:54:58.728Z,13.25
2018-10-04T12:56:01.473Z,14.75
2018-10-04T12:57:05.026Z,16.25
2018-10-04T12:59:15.692Z,18.00
2018-10-04T13:00:20.832Z,17.75
2018-10-04T13:01:25.231Z,14.75
2018-10-04T13:02:28.212Z,15.00
2018-10-04T13:03:31.006Z,19.00
2018-10-04T13:04:33.872Z,16.25
2018-10-04T13:05:37.183Z,13.50
2018-10-04T13:06:40.009Z,14.25
2018-10-04T13:07:46.421Z,16.00
2018-10-04T13:08:49.132Z,18.00
2018-10-04T13:09:52.968Z,18.75
2018-10-04T13:10:55.747Z,17.00
2018-10-04T13:11:58.447Z,16.75
2018-10-04T13:13:01.869Z,15.75
2018-10-04T13:14:05.624Z,13.00
2018-10-04T13:15:09.713Z,15.75
2018-10-04T13:16:13.023Z,16.00
2018-10-04T13:17:16.404Z,17.25
2018-10-04T13:18:20.983Z,19.00
2018-10-04T13:19:24.142Z,19.75
2018-10-04T13:20:27.320Z,16.25
2018-10-04T13:21:30.137Z,15.75
2018-10-04T13:22:33.536Z,13.75
2018-10-04T13:23:36.313Z,14.00
2018-10-04T13:24:39.700Z,15.00
2018-10-04T13:25:42.649Z,14.00
2018-10-04T13:26:45.669Z,17.00
2018-10-04T13:27:48.523Z,11.00
2018-10-04T13:28:51.340Z,13.00
2018-10-04T13:29:54.537Z,13.25
2018-10-04T13:30:58.168Z,13.75
2018-10-04T13:32:02.168Z,17.00
2018-10-04T13:33:05.960Z,14.50
2018-10-04T13:34:09.524Z,14.00
2018-10-04T13:35:14.509Z,12.50
2018-10-04T13:36:18.209Z,12.75
2018-10-04T13:37:21.101Z,14.50
2018-10-04T13:38:24.593Z,12.75
2018-10-04T13:39:27.744Z,17.00
2018-10-04T13:40:31.792Z,12.00
2018-10-04T13:41:34.586Z,13.50
2018-10-04T13:42:37.380Z,11.50
2018-10-04T13:43:41.271Z,14.00
2018-10-04T13:44:44.665Z,14.00
2018-10-04T13:45:48.359Z,13.50
2018-10-04T13:46:51.733Z,13.00
2018-10-04T13:47:54.568Z,12.00
2018-10-04T13:48:58.468Z,12.00
2018-10-04T13:50:02.079Z,13.00
2018-10-04T13:51:07.687Z,12.00
2018-10-04T13:52:11.067Z,11.50
2018-10-04T13:53:13.853Z,15.00
2018-10-04T13:54:17.587Z,12.00
2018-10-04T13:55:21.427Z,10.00
2018-10-04T13:56:24.567Z,11.25
2018-10-04T13:57:28.917Z,12.00
2018-10-04T13:58:33.666Z,15.00
2018-10-04T13:59:37.427Z,15.00
2018-10-04T14:00:40.696Z,14.00
2018-10-04T14:01:44.044Z,13.00
2018-10-04T14:02:46.776Z,16.00
2018-10-04T14:03:50.621Z,13.25
2018-10-04T14:04:55.867Z,12.50
2018-10-04T14:05:59.726Z,11.25
2018-10-04T14:07:03.314Z,11.50
2018-10-04T14:08:06.705Z,12.50
2018-10-04T14:09:09.823Z,10.75
2018-10-04T14:10:14.720Z,13.00
2018-10-04T14:11:19.391Z,13.25
2018-10-04T14:12:22.320Z,11.75
2018-10-04T14:13:25.394Z,10.00
2018-10-04T14:14:28.874Z,11.00
2018-10-04T14:15:31.756Z,10.75
2018-10-04T14:16:34.781Z,10.75
2018-10-04T14:17:39.423Z,8.75
2018-10-04T14:18:43.484Z,10.00